Alton, Alabama
Current Conditions -  °F | °C
As of 4:53 PM on Wednesday 17 Dec 2014 (Local Time) from KBHM Reporting Station
Broken Clouds Broken Clouds  
Wind Chill: 41°   Ceiling: 25000
Heat Index: 41°   Visibility: 10mi
Dew Point: 34°   Wind: 3mph
Humidity: 76%   Direction: 350°N
Pressure: 30.24"   Gusts: NA
Location:  33.58°N, 86.64°W
Report Text: KBHM 172253Z 35003KT 10SM FEW021 BKN250 05/01 A3024 RMK AO2 SLP242 T00500011
Loading
Personal Weather Stations






























Interactive Weather Map New forecast layout! Learn more

10-Day Weather Forecast

Advertisements
Track Severe Weather on mobile